createdAt,value
2018-03-08T00:01:05.834Z,4.40
2018-03-08T00:03:32.012Z,3.37
2018-03-08T00:05:58.148Z,4.73
2018-03-08T00:08:24.668Z,4.10
2018-03-08T00:10:50.805Z,4.13
2018-03-08T00:13:16.982Z,4.73
2018-03-08T00:15:43.134Z,3.97
2018-03-08T00:18:09.313Z,4.20
2018-03-08T00:20:35.579Z,4.17
2018-03-08T00:23:01.735Z,5.70
2018-03-08T00:25:27.920Z,4.27
2018-03-08T00:27:54.105Z,4.10
2018-03-08T00:30:20.365Z,3.70
2018-03-08T00:32:46.524Z,4.10
2018-03-08T00:35:12.677Z,3.93
2018-03-08T00:37:38.886Z,4.47
2018-03-08T00:40:05.029Z,4.77
2018-03-08T00:42:31.189Z,4.47
2018-03-08T00:44:57.380Z,5.63
2018-03-08T00:47:23.582Z,4.70
2018-03-08T00:49:49.717Z,6.10
2018-03-08T00:52:15.927Z,6.90
2018-03-08T00:54:42.167Z,7.57
2018-03-08T00:57:08.302Z,8.70
2018-03-08T00:59:34.504Z,8.17
2018-03-08T01:02:00.743Z,9.43
2018-03-08T01:04:27.023Z,9.07
2018-03-08T01:06:53.192Z,7.97
2018-03-08T01:09:19.357Z,7.20
2018-03-08T01:11:45.577Z,6.53
2018-03-08T01:14:11.787Z,6.87
2018-03-08T01:16:37.952Z,5.80
2018-03-08T01:19:04.109Z,5.80
2018-03-08T01:21:30.263Z,5.03
2018-03-08T01:23:56.460Z,5.90
2018-03-08T01:26:22.642Z,5.73
2018-03-08T01:28:48.820Z,5.87
2018-03-08T01:31:15.119Z,5.60
2018-03-08T01:33:41.321Z,6.37
2018-03-08T01:36:19.631Z,5.30
2018-03-08T01:38:45.787Z,6.03
2018-03-08T01:41:11.965Z,5.83
2018-03-08T01:43:38.234Z,4.67
2018-03-08T01:46:04.427Z,5.13
2018-03-08T01:48:30.572Z,5.07
2018-03-08T01:50:56.729Z,4.67
2018-03-08T01:53:22.926Z,5.13
2018-03-08T01:55:49.066Z,4.90
2018-03-08T01:58:15.240Z,5.40
2018-03-08T02:00:41.467Z,4.70
2018-03-08T02:03:07.681Z,4.80
2018-03-08T02:05:33.899Z,4.00
2018-03-08T02:08:00.062Z,4.57
2018-03-08T02:10:26.227Z,4.80
2018-03-08T02:12:52.402Z,4.40
2018-03-08T02:15:18.608Z,4.67
2018-03-08T02:17:44.798Z,4.60
2018-03-08T02:20:10.939Z,4.43
2018-03-08T02:22:37.148Z,4.97
2018-03-08T02:25:03.394Z,4.70
2018-03-08T02:27:29.518Z,4.67
2018-03-08T02:29:55.702Z,5.00
2018-03-08T02:32:21.838Z,5.17
2018-03-08T02:34:48.023Z,5.20
2018-03-08T02:37:14.232Z,5.10
2018-03-08T02:39:40.497Z,4.73
2018-03-08T02:42:06.671Z,5.80
2018-03-08T02:44:32.911Z,5.33
2018-03-08T02:46:59.075Z,4.97
2018-03-08T02:49:25.236Z,5.17
2018-03-08T02:51:51.406Z,5.30
2018-03-08T02:54:17.643Z,5.67
2018-03-08T02:56:43.820Z,5.43
2018-03-08T02:59:09.961Z,6.07
2018-03-08T03:01:36.160Z,6.00
2018-03-08T03:04:02.428Z,6.27
2018-03-08T03:06:28.659Z,6.07
2018-03-08T03:08:54.847Z,5.77
2018-03-08T03:11:21.024Z,6.37
2018-03-08T03:13:47.261Z,5.83
2018-03-08T03:16:13.440Z,6.27
2018-03-08T03:18:39.905Z,6.03
2018-03-08T03:21:06.138Z,5.97
2018-03-08T03:23:32.363Z,6.20
2018-03-08T03:25:58.523Z,6.27
2018-03-08T03:28:24.662Z,6.10
2018-03-08T03:30:50.861Z,6.27
2018-03-08T03:33:17.008Z,5.90
2018-03-08T03:35:43.213Z,5.80
2018-03-08T03:38:09.408Z,5.90
2018-03-08T03:40:35.549Z,6.50
2018-03-08T03:43:02.520Z,6.43
2018-03-08T03:45:28.732Z,6.07
2018-03-08T03:47:54.878Z,6.90
2018-03-08T03:50:21.107Z,5.97
2018-03-08T03:52:47.313Z,6.13
2018-03-08T03:55:13.574Z,6.73
2018-03-08T03:57:39.741Z,6.17
2018-03-08T04:00:05.942Z,6.27
2018-03-08T04:02:32.092Z,6.70
2018-03-08T04:04:58.282Z,6.10
2018-03-08T04:07:24.475Z,6.20
2018-03-08T04:09:50.655Z,6.33
2018-03-08T04:12:16.831Z,6.50
2018-03-08T04:14:43.018Z,6.73
2018-03-08T04:17:09.199Z,6.43
2018-03-08T04:19:35.388Z,6.17
2018-03-08T04:22:01.580Z,6.00
2018-03-08T04:24:27.774Z,5.93
2018-03-08T04:26:53.915Z,6.13
2018-03-08T04:29:20.088Z,6.53
2018-03-08T04:31:46.248Z,7.07
2018-03-08T04:34:12.464Z,7.33
2018-03-08T04:36:38.665Z,6.03
2018-03-08T04:39:04.852Z,6.23
2018-03-08T04:41:30.990Z,6.23
2018-03-08T04:43:57.221Z,5.83
2018-03-08T04:46:23.355Z,5.90
2018-03-08T04:48:49.503Z,5.50
2018-03-08T04:51:15.711Z,5.63
2018-03-08T04:53:41.860Z,5.80
2018-03-08T04:56:08.024Z,6.03
2018-03-08T04:58:34.300Z,5.40
2018-03-08T05:01:00.494Z,5.73
2018-03-08T05:03:26.632Z,5.37
2018-03-08T05:05:52.836Z,5.70
2018-03-08T05:08:18.974Z,5.67
2018-03-08T05:10:45.118Z,5.97
2018-03-08T05:13:11.303Z,5.13
2018-03-08T05:15:37.521Z,6.30
2018-03-08T05:18:03.728Z,6.13
2018-03-08T05:20:29.898Z,6.87
2018-03-08T05:22:56.071Z,5.60
2018-03-08T05:25:22.257Z,6.47
2018-03-08T05:27:48.396Z,6.83
2018-03-08T05:30:14.571Z,5.57
2018-03-08T05:32:40.731Z,5.90
2018-03-08T05:35:06.991Z,6.33
2018-03-08T05:37:33.181Z,6.50
2018-03-08T05:39:59.348Z,5.53
2018-03-08T05:42:25.514Z,5.90
2018-03-08T05:44:51.729Z,6.17
2018-03-08T05:47:17.863Z,5.90
2018-03-08T05:49:44.054Z,6.27
2018-03-08T05:52:10.269Z,6.90
2018-03-08T05:54:36.502Z,5.70
2018-03-08T05:57:02.662Z,5.70
2018-03-08T05:59:28.853Z,6.07
2018-03-08T06:01:55.055Z,6.93
2018-03-08T06:04:21.273Z,7.23
2018-03-08T06:06:47.464Z,6.90
2018-03-08T06:09:13.631Z,6.83
2018-03-08T06:11:39.807Z,7.30
2018-03-08T06:14:06.050Z,6.53
2018-03-08T06:16:32.252Z,6.63
2018-03-08T06:18:58.388Z,6.47
2018-03-08T06:21:24.544Z,7.37
2018-03-08T06:23:50.708Z,6.70
2018-03-08T06:26:16.855Z,7.00
2018-03-08T06:28:43.027Z,6.73
2018-03-08T06:31:09.219Z,7.97
2018-03-08T06:33:35.409Z,7.33
2018-03-08T06:36:01.641Z,7.77
2018-03-08T06:38:27.815Z,6.80
2018-03-08T06:40:53.985Z,7.33
2018-03-08T06:43:20.206Z,7.93
2018-03-08T06:45:46.364Z,7.10
2018-03-08T06:48:12.522Z,8.23
2018-03-08T06:50:38.723Z,7.90
2018-03-08T06:53:04.960Z,7.87
2018-03-08T06:55:31.097Z,6.53
2018-03-08T06:57:57.336Z,6.37
2018-03-08T07:00:23.509Z,7.83
2018-03-08T07:02:49.742Z,7.43
2018-03-08T07:05:15.935Z,7.87
2018-03-08T07:07:42.149Z,7.00
2018-03-08T07:10:08.281Z,6.93
2018-03-08T07:12:34.505Z,7.17
2018-03-08T07:15:00.716Z,7.97
2018-03-08T07:17:26.903Z,6.93
2018-03-08T07:19:53.086Z,7.77
2018-03-08T07:22:19.250Z,7.07
2018-03-08T07:24:45.456Z,7.13
2018-03-08T07:27:11.679Z,7.57
2018-03-08T07:29:37.859Z,7.47
2018-03-08T07:32:04.032Z,6.63
2018-03-08T07:34:30.257Z,6.87
2018-03-08T07:36:56.468Z,6.87
2018-03-08T07:39:22.589Z,7.10
2018-03-08T07:41:48.766Z,6.53
2018-03-08T07:44:15.047Z,6.97
2018-03-08T07:46:41.195Z,6.07
2018-03-08T07:49:07.363Z,6.87
2018-03-08T07:51:33.532Z,6.03
2018-03-08T07:53:59.742Z,7.30
2018-03-08T07:56:25.922Z,7.80
2018-03-08T07:58:52.084Z,6.40
2018-03-08T08:01:18.245Z,6.50
2018-03-08T08:03:44.468Z,6.80
2018-03-08T08:06:22.849Z,7.37
2018-03-08T08:09:01.187Z,6.93
2018-03-08T08:11:27.350Z,6.73
2018-03-08T08:13:53.553Z,6.33
2018-03-08T08:16:19.772Z,6.90
2018-03-08T08:18:45.922Z,6.87
2018-03-08T08:21:12.083Z,6.80
2018-03-08T08:23:38.265Z,6.70
2018-03-08T08:26:04.458Z,7.70
2018-03-08T08:28:30.623Z,7.90
2018-03-08T08:30:56.778Z,7.47
2018-03-08T08:33:22.991Z,7.30
2018-03-08T08:35:49.193Z,7.10
2018-03-08T08:38:16.387Z,7.43
2018-03-08T08:40:42.616Z,9.30
2018-03-08T08:43:08.838Z,7.57
2018-03-08T08:45:35.113Z,8.20
2018-03-08T08:48:01.251Z,8.23
2018-03-08T08:50:27.424Z,7.97
2018-03-08T08:52:53.542Z,7.90
2018-03-08T08:55:19.748Z,8.80
2018-03-08T08:57:45.846Z,7.93
2018-03-08T09:00:11.952Z,8.03
2018-03-08T09:02:38.076Z,7.83
2018-03-08T09:05:04.227Z,7.77
2018-03-08T09:07:30.432Z,6.87
2018-03-08T09:09:56.548Z,7.47
2018-03-08T09:12:22.630Z,7.53
2018-03-08T09:14:48.784Z,7.00
2018-03-08T09:17:15.288Z,6.57
2018-03-08T09:19:41.480Z,7.17
2018-03-08T09:22:07.649Z,7.50
2018-03-08T09:24:33.898Z,8.00
2018-03-08T09:27:00.043Z,8.07
2018-03-08T09:29:26.174Z,7.37
2018-03-08T09:31:52.404Z,6.17
2018-03-08T09:34:18.568Z,7.17
2018-03-08T09:36:44.739Z,6.40
2018-03-08T09:39:10.947Z,7.60
2018-03-08T09:41:37.077Z,7.40
2018-03-08T09:44:03.350Z,6.07
2018-03-08T09:46:29.625Z,5.70
2018-03-08T09:48:55.771Z,5.97
2018-03-08T09:51:21.927Z,6.33
2018-03-08T09:53:48.118Z,5.70
2018-03-08T09:56:14.301Z,6.27
2018-03-08T09:58:40.466Z,6.03
2018-03-08T10:01:06.654Z,5.80
2018-03-08T10:03:32.780Z,5.37
2018-03-08T10:05:58.961Z,5.47
2018-03-08T10:08:25.155Z,4.80
2018-03-08T10:10:51.293Z,6.10
2018-03-08T10:13:17.449Z,5.33
2018-03-08T10:15:43.683Z,4.77
2018-03-08T10:18:09.817Z,5.07
2018-03-08T10:20:35.991Z,3.83
2018-03-08T10:23:02.219Z,3.60
2018-03-08T10:25:28.544Z,2.97
2018-03-08T10:27:54.693Z,3.00
2018-03-08T10:30:20.845Z,1.77
2018-03-08T10:32:47.018Z,2.07
2018-03-08T10:35:13.194Z,2.07
2018-03-08T10:37:39.744Z,2.20
2018-03-08T10:40:05.924Z,1.70
2018-03-08T10:44:58.373Z,2.40
2018-03-08T10:47:24.539Z,1.83
2018-03-08T10:49:50.698Z,1.57
2018-03-08T10:52:16.922Z,0.97
2018-03-08T10:54:43.127Z,1.10
2018-03-08T10:57:09.296Z,1.97
2018-03-08T10:59:35.474Z,0.97
2018-03-08T11:02:02.515Z,1.10
2018-03-08T11:04:28.787Z,1.40
2018-03-08T11:06:55.044Z,1.57
2018-03-08T11:09:21.194Z,1.70
2018-03-08T11:11:47.367Z,1.43
2018-03-08T11:14:13.613Z,1.47
2018-03-08T11:16:39.763Z,1.60
2018-03-08T11:19:05.903Z,1.87
2018-03-08T11:21:32.079Z,1.83
2018-03-08T11:23:58.287Z,2.30
2018-03-08T11:26:24.619Z,2.50
2018-03-08T11:28:50.781Z,1.80
2018-03-08T11:31:16.882Z,1.83
2018-03-08T11:33:42.991Z,1.63
2018-03-08T11:36:09.156Z,1.43
2018-03-08T11:38:35.272Z,1.50
2018-03-08T11:41:01.834Z,1.63
2018-03-08T11:43:27.542Z,1.50
2018-03-08T11:45:53.736Z,1.83
2018-03-08T11:48:19.826Z,1.37
2018-03-08T11:50:45.943Z,1.43
2018-03-08T11:53:12.088Z,1.40
2018-03-08T11:55:38.272Z,1.30
2018-03-08T11:58:04.379Z,1.57
2018-03-08T12:00:30.486Z,1.30
2018-03-08T12:02:56.609Z,1.40
2018-03-08T12:05:22.775Z,1.50
2018-03-08T12:07:48.956Z,1.10
2018-03-08T12:10:15.051Z,1.20
2018-03-08T12:12:41.173Z,1.37
2018-03-08T12:15:07.314Z,1.10
2018-03-08T12:17:33.410Z,1.20
2018-03-08T12:19:59.496Z,1.23
2018-03-08T12:22:25.651Z,0.93
2018-03-08T12:24:51.801Z,1.30
2018-03-08T12:27:17.893Z,1.50
2018-03-08T12:29:44.027Z,1.57
2018-03-08T12:32:10.139Z,1.10
2018-03-08T12:34:36.313Z,1.20
2018-03-08T12:37:02.570Z,1.30
2018-03-08T12:39:28.668Z,1.50
2018-03-08T12:41:54.774Z,1.33
2018-03-08T12:44:20.962Z,1.87
2018-03-08T12:46:47.152Z,1.63
2018-03-08T12:49:13.273Z,1.30
2018-03-08T12:51:39.378Z,1.80
2018-03-08T12:54:05.505Z,1.47
2018-03-08T12:56:31.641Z,1.40
2018-03-08T12:58:57.743Z,1.90
2018-03-08T13:01:23.821Z,1.53
2018-03-08T13:03:49.980Z,1.60
2018-03-08T13:06:16.113Z,1.60
2018-03-08T13:08:42.282Z,2.07
2018-03-08T13:11:08.413Z,1.37
2018-03-08T13:13:34.540Z,1.60
2018-03-08T13:16:00.729Z,1.83
2018-03-08T13:18:26.824Z,1.80
2018-03-08T13:20:52.943Z,1.93
2018-03-08T13:23:19.086Z,1.50
2018-03-08T13:25:45.280Z,1.40
2018-03-08T13:28:11.377Z,1.80
2018-03-08T13:30:37.509Z,1.83
2018-03-08T13:33:03.617Z,1.80
2018-03-08T13:35:29.759Z,1.80
2018-03-08T13:37:55.958Z,1.37
2018-03-08T13:40:22.075Z,1.07
2018-03-08T13:42:48.205Z,2.00
2018-03-08T13:45:14.355Z,1.20
2018-03-08T13:47:40.486Z,1.63
2018-03-08T13:50:06.607Z,1.27
2018-03-08T13:52:32.753Z,1.43
2018-03-08T13:54:58.930Z,1.10
2018-03-08T13:57:25.039Z,1.43
2018-03-08T13:59:51.168Z,1.60
2018-03-08T14:02:17.335Z,1.53
2018-03-08T14:04:43.463Z,1.37
2018-03-08T14:07:09.644Z,1.20
2018-03-08T14:09:35.777Z,1.73
2018-03-08T14:12:01.877Z,1.30
2018-03-08T14:14:28.011Z,1.37
2018-03-08T14:16:54.183Z,1.13
2018-03-08T14:19:20.271Z,1.10
2018-03-08T14:21:46.398Z,1.10
2018-03-08T14:24:12.493Z,1.00
2018-03-08T14:26:38.652Z,1.30
2018-03-08T14:29:04.791Z,1.30
2018-03-08T14:31:30.904Z,0.90
2018-03-08T14:33:56.986Z,0.80
2018-03-08T14:36:23.129Z,1.63
2018-03-08T14:38:49.293Z,1.33
2018-03-08T14:41:15.381Z,1.13
2018-03-08T14:43:41.500Z,1.10
2018-03-08T14:46:07.700Z,1.17
2018-03-08T14:48:33.792Z,1.07
2018-03-08T14:50:59.887Z,0.80
2018-03-08T14:53:26.041Z,0.90
2018-03-08T14:55:52.237Z,1.10
2018-03-08T14:58:18.356Z,0.90
2018-03-08T15:00:44.445Z,1.07
2018-03-08T15:03:10.578Z,0.90
2018-03-08T15:05:36.737Z,1.23
2018-03-08T15:08:02.885Z,1.37
2018-03-08T15:10:28.999Z,0.90
2018-03-08T15:12:55.149Z,1.17
2018-03-08T15:15:21.313Z,1.20
2018-03-08T15:17:47.423Z,1.27
2018-03-08T15:20:13.557Z,1.00
2018-03-08T15:22:39.750Z,1.67
2018-03-08T15:25:05.981Z,1.50
2018-03-08T15:27:32.100Z,1.20
2018-03-08T15:29:58.220Z,1.40
2018-03-08T15:32:24.376Z,1.37
2018-03-08T15:34:50.530Z,1.20
2018-03-08T15:37:16.653Z,1.00
2018-03-08T15:39:42.796Z,1.10
2018-03-08T15:42:08.951Z,1.60
2018-03-08T15:44:35.043Z,1.57
2018-03-08T15:47:01.197Z,1.23
2018-03-08T15:49:27.365Z,1.60
2018-03-08T15:51:53.461Z,1.30
2018-03-08T15:54:19.551Z,1.17
2018-03-08T15:56:45.686Z,1.40
2018-03-08T15:59:11.787Z,1.80
2018-03-08T16:01:37.883Z,1.43
2018-03-08T16:04:04.024Z,1.23
2018-03-08T16:06:42.349Z,1.67
2018-03-08T16:09:08.505Z,1.30
2018-03-08T16:11:34.628Z,1.40
2018-03-08T16:14:00.736Z,1.37
2018-03-08T16:16:26.898Z,1.20
2018-03-08T16:18:53.006Z,1.60
2018-03-08T16:21:19.117Z,1.23
2018-03-08T16:23:45.285Z,1.40
2018-03-08T16:26:11.457Z,1.57
2018-03-08T16:28:37.554Z,1.77
2018-03-08T16:31:03.655Z,1.20
2018-03-08T16:33:29.781Z,1.90
2018-03-08T16:35:55.989Z,1.30
2018-03-08T16:38:22.072Z,1.23
2018-03-08T16:40:48.190Z,1.90
2018-03-08T16:43:14.280Z,1.47
2018-03-08T16:45:40.472Z,1.77
2018-03-08T16:48:06.588Z,1.40
2018-03-08T16:50:32.694Z,1.60
2018-03-08T16:52:58.805Z,1.23
2018-03-08T16:55:24.967Z,1.50
2018-03-08T16:57:51.268Z,1.40
2018-03-08T17:00:17.425Z,1.50
2018-03-08T17:02:43.534Z,1.63
2018-03-08T17:05:09.701Z,2.07
2018-03-08T17:07:35.951Z,1.63
2018-03-08T17:10:02.129Z,1.60
2018-03-08T17:12:28.246Z,1.70
2018-03-08T17:14:54.384Z,1.50
2018-03-08T17:17:20.535Z,1.70
2018-03-08T17:19:46.624Z,1.43
2018-03-08T17:22:12.801Z,1.30
2018-03-08T17:24:38.915Z,1.60
2018-03-08T17:27:05.120Z,1.43
2018-03-08T17:29:31.252Z,1.17
2018-03-08T17:31:57.355Z,1.40
2018-03-08T17:34:23.563Z,1.50
2018-03-08T17:36:49.762Z,2.47
2018-03-08T17:39:15.878Z,1.30
2018-03-08T17:41:41.974Z,1.60
2018-03-08T17:44:08.109Z,1.80
2018-03-08T17:46:34.285Z,2.27
2018-03-08T17:49:00.403Z,1.63
2018-03-08T17:51:26.529Z,2.17
2018-03-08T17:53:52.728Z,2.80
2018-03-08T17:56:18.889Z,2.40
2018-03-08T17:58:44.998Z,2.40
2018-03-08T18:01:11.149Z,2.13
2018-03-08T18:03:37.288Z,4.03
2018-03-08T18:06:03.477Z,2.60
2018-03-08T18:08:29.675Z,5.07
2018-03-08T18:10:55.798Z,1.90
2018-03-08T18:13:21.930Z,1.80
2018-03-08T18:15:48.113Z,2.30
2018-03-08T18:18:14.230Z,1.93
2018-03-08T18:20:40.341Z,2.00
2018-03-08T18:23:06.489Z,1.70
2018-03-08T18:25:32.577Z,1.90
2018-03-08T18:27:58.751Z,2.40
2018-03-08T18:30:24.947Z,2.40
2018-03-08T18:32:51.055Z,2.80
2018-03-08T18:35:17.181Z,1.87
2018-03-08T18:37:43.363Z,1.80
2018-03-08T18:40:09.451Z,2.70
2018-03-08T18:42:36.624Z,3.07
2018-03-08T18:45:02.842Z,1.57
2018-03-08T18:47:29.014Z,1.97
2018-03-08T18:49:55.160Z,2.87
2018-03-08T18:52:21.281Z,2.67
2018-03-08T18:54:48.343Z,1.93
2018-03-08T18:57:14.487Z,2.33
2018-03-08T18:59:40.600Z,2.80
2018-03-08T19:02:11.716Z,2.83
2018-03-08T19:04:37.876Z,2.03
2018-03-08T19:07:04.062Z,2.83
2018-03-08T19:09:30.243Z,2.30
2018-03-08T19:11:56.352Z,2.23
2018-03-08T19:14:22.473Z,2.77
2018-03-08T19:16:48.653Z,2.43
2018-03-08T19:19:14.813Z,2.43
2018-03-08T19:21:40.965Z,1.93
2018-03-08T19:24:07.149Z,2.23
2018-03-08T19:26:33.341Z,2.43
2018-03-08T19:28:59.507Z,1.83
2018-03-08T19:31:25.598Z,2.70
2018-03-08T19:33:51.730Z,2.23
2018-03-08T19:36:17.905Z,2.17
2018-03-08T19:38:44.105Z,3.27
2018-03-08T19:41:10.270Z,2.43
2018-03-08T19:43:36.419Z,2.80
2018-03-08T19:46:02.571Z,2.37
2018-03-08T19:48:28.805Z,2.30
2018-03-08T19:50:54.914Z,2.63
2018-03-08T19:53:21.060Z,1.83
2018-03-08T19:55:47.224Z,1.90
2018-03-08T19:58:13.442Z,2.73
2018-03-08T20:00:39.584Z,3.20
2018-03-08T20:03:05.685Z,2.53
2018-03-08T20:05:31.855Z,2.77
2018-03-08T20:07:58.054Z,2.67
2018-03-08T20:10:24.175Z,2.43
2018-03-08T20:12:50.495Z,2.70
2018-03-08T20:15:16.619Z,3.10
2018-03-08T20:17:42.779Z,2.77
2018-03-08T20:20:08.890Z,3.13
2018-03-08T20:22:35.015Z,2.27
2018-03-08T20:25:01.121Z,2.50
2018-03-08T20:27:27.286Z,2.73
2018-03-08T20:29:54.353Z,2.90
2018-03-08T20:32:20.439Z,3.20
2018-03-08T20:34:46.581Z,2.77
2018-03-08T20:37:12.755Z,3.53
2018-03-08T20:39:39.155Z,2.60
2018-03-08T20:42:05.518Z,2.63
2018-03-08T20:44:31.716Z,3.00
2018-03-08T20:46:57.941Z,2.93
2018-03-08T20:49:24.083Z,2.47
2018-03-08T20:51:50.336Z,3.20
2018-03-08T20:54:16.549Z,3.00
2018-03-08T20:56:42.765Z,3.77
2018-03-08T20:59:08.893Z,3.23
2018-03-08T21:01:35.091Z,3.10
2018-03-08T21:04:01.248Z,2.90
2018-03-08T21:06:27.438Z,2.80
2018-03-08T21:08:53.637Z,3.37
2018-03-08T21:11:19.823Z,3.17
2018-03-08T21:13:46.001Z,2.60
2018-03-08T21:16:12.207Z,2.50
2018-03-08T21:18:38.452Z,3.27
2018-03-08T21:21:04.679Z,2.60
2018-03-08T21:23:30.866Z,2.60
2018-03-08T21:25:57.080Z,3.13
2018-03-08T21:28:23.290Z,2.90
2018-03-08T21:30:49.485Z,2.73
2018-03-08T21:33:15.696Z,2.50
2018-03-08T21:35:41.960Z,2.53
2018-03-08T21:38:08.198Z,2.73
2018-03-08T21:40:34.384Z,2.57
2018-03-08T21:43:00.577Z,2.43
2018-03-08T21:45:26.739Z,2.77
2018-03-08T21:47:52.947Z,2.90
2018-03-08T21:50:19.102Z,2.33
2018-03-08T21:52:45.297Z,3.10
2018-03-08T21:55:11.477Z,3.00
2018-03-08T21:57:37.783Z,2.47
2018-03-08T22:00:03.976Z,2.33
2018-03-08T22:02:30.134Z,3.83
2018-03-08T22:04:56.363Z,2.77
2018-03-08T22:07:22.588Z,3.17
2018-03-08T22:09:48.757Z,3.87
2018-03-08T22:12:14.932Z,3.13
2018-03-08T22:14:41.163Z,4.20
2018-03-08T22:17:07.384Z,3.40
2018-03-08T22:19:33.534Z,2.77
2018-03-08T22:21:59.685Z,2.70
2018-03-08T22:24:25.872Z,3.40
2018-03-08T22:26:52.048Z,3.67
2018-03-08T22:29:18.252Z,3.17
2018-03-08T22:31:44.412Z,3.10
2018-03-08T22:34:10.575Z,3.00
2018-03-08T22:36:36.776Z,3.40
2018-03-08T22:39:03.137Z,3.43
2018-03-08T22:41:29.230Z,3.00
2018-03-08T22:43:55.418Z,3.30
2018-03-08T22:46:21.610Z,3.50
2018-03-08T22:48:47.852Z,3.03
2018-03-08T22:51:14.042Z,2.53
2018-03-08T22:53:40.225Z,2.90
2018-03-08T22:56:06.370Z,3.27
2018-03-08T22:58:32.597Z,3.63
2018-03-08T23:00:58.768Z,4.00
2018-03-08T23:03:30.101Z,3.30
2018-03-08T23:05:56.312Z,3.90
2018-03-08T23:08:22.487Z,3.03
2018-03-08T23:10:48.640Z,2.90
2018-03-08T23:13:14.791Z,3.30
2018-03-08T23:15:40.988Z,3.03
2018-03-08T23:18:07.190Z,2.87
2018-03-08T23:20:33.299Z,2.80
2018-03-08T23:22:59.451Z,3.00
2018-03-08T23:25:25.685Z,2.47
2018-03-08T23:27:51.852Z,3.17
2018-03-08T23:30:17.995Z,3.20
2018-03-08T23:32:44.157Z,3.27
2018-03-08T23:35:10.288Z,3.13
2018-03-08T23:37:36.480Z,3.70
2018-03-08T23:40:02.943Z,3.03
2018-03-08T23:42:29.089Z,2.90
2018-03-08T23:44:55.325Z,3.60
2018-03-08T23:47:21.474Z,4.03
2018-03-08T23:49:47.678Z,2.80
2018-03-08T23:52:13.864Z,3.53
2018-03-08T23:54:40.034Z,2.27
2018-03-08T23:57:06.242Z,2.60
2018-03-08T23:59:32.472Z,3.17
